createdAt,value
2018-03-27T00:02:07.610Z,46.20
2018-03-27T00:04:33.635Z,41.20
2018-03-27T00:06:59.688Z,46.85
2018-03-27T00:09:25.837Z,44.08
2018-03-27T00:11:51.977Z,42.42
2018-03-27T00:14:18.011Z,47.35
2018-03-27T00:16:44.008Z,50.12
2018-03-27T00:19:10.042Z,41.13
2018-03-27T00:21:36.076Z,42.00
2018-03-27T00:24:02.074Z,48.00
2018-03-27T00:26:28.192Z,41.45
2018-03-27T00:29:06.484Z,44.22
2018-03-27T00:31:44.694Z,46.17
2018-03-27T00:34:22.809Z,44.15
2018-03-27T00:37:00.939Z,40.20
2018-03-27T00:39:38.960Z,40.42
2018-03-27T00:42:20.700Z,43.50
2018-03-27T00:44:46.692Z,48.92
2018-03-27T00:47:12.687Z,48.15
2018-03-27T00:49:38.692Z,49.50
2018-03-27T00:52:04.695Z,45.45
2018-03-27T00:54:30.694Z,46.60
2018-03-27T00:56:56.707Z,48.70
2018-03-27T00:59:22.728Z,45.03
2018-03-27T01:01:48.729Z,45.30
2018-03-27T01:04:14.721Z,45.08
2018-03-27T01:06:40.721Z,43.42
2018-03-27T01:09:06.725Z,46.58
2018-03-27T01:11:32.716Z,50.03
2018-03-27T01:13:58.789Z,44.53
2018-03-27T01:16:24.785Z,53.95
2018-03-27T01:18:50.786Z,50.67
2018-03-27T01:21:16.763Z,44.38
2018-03-27T01:23:42.814Z,45.38
2018-03-27T01:26:08.832Z,50.67
2018-03-27T01:28:35.602Z,45.83
2018-03-27T01:31:01.699Z,44.33
2018-03-27T01:33:27.703Z,45.92
2018-03-27T01:35:53.722Z,46.13
2018-03-27T01:38:19.846Z,37.63
2018-03-27T01:40:45.876Z,50.17
2018-03-27T01:43:11.900Z,51.75
2018-03-27T01:45:37.895Z,36.67
2018-03-27T01:48:03.958Z,44.38
2018-03-27T01:50:30.096Z,48.38
2018-03-27T01:52:56.107Z,37.58
2018-03-27T01:55:22.133Z,54.95
2018-03-27T01:57:48.695Z,58.72
2018-03-27T02:00:14.708Z,54.83
2018-03-27T02:02:40.725Z,36.35
2018-03-27T02:05:06.722Z,50.88
2018-03-27T02:07:32.723Z,51.42
2018-03-27T02:09:58.744Z,54.10
2018-03-27T02:12:30.643Z,46.42
2018-03-27T02:15:02.649Z,48.17
2018-03-27T02:17:34.643Z,49.95
2018-03-27T02:20:06.677Z,47.67
2018-03-27T02:22:33.602Z,35.35
2018-03-27T02:24:59.709Z,51.17
2018-03-27T02:27:25.835Z,51.53
2018-03-27T02:29:51.821Z,50.83
2018-03-27T02:32:17.913Z,47.20
2018-03-27T02:34:44.146Z,50.95
2018-03-27T02:37:10.303Z,60.30
2018-03-27T02:39:36.364Z,57.95
2018-03-27T02:42:02.378Z,55.72
2018-03-27T02:44:28.407Z,52.90
2018-03-27T02:46:54.468Z,52.03
2018-03-27T02:49:20.466Z,47.70
2018-03-27T02:51:46.462Z,52.03
2018-03-27T02:54:12.508Z,43.97
2018-03-27T02:56:38.517Z,49.30
2018-03-27T02:59:04.529Z,50.25
2018-03-27T03:01:30.577Z,41.55
2018-03-27T03:03:56.589Z,45.03
2018-03-27T03:06:22.569Z,43.63
2018-03-27T03:08:48.712Z,48.13
2018-03-27T03:11:14.726Z,48.05
2018-03-27T03:13:40.710Z,42.70
2018-03-27T03:16:06.718Z,48.33
2018-03-27T03:18:32.701Z,50.70
2018-03-27T03:20:58.701Z,49.92
2018-03-27T03:23:24.697Z,52.17
2018-03-27T03:25:50.689Z,51.25
2018-03-27T03:28:16.714Z,49.53
2018-03-27T03:30:42.701Z,50.60
2018-03-27T03:33:08.712Z,50.17
2018-03-27T03:35:34.708Z,46.55
2018-03-27T03:38:00.695Z,44.80
2018-03-27T03:40:26.673Z,43.80
2018-03-27T03:42:52.685Z,48.85
2018-03-27T03:45:18.662Z,45.90
2018-03-27T03:47:44.644Z,46.05
2018-03-27T03:50:10.706Z,46.17
2018-03-27T03:52:36.725Z,48.38
2018-03-27T03:55:02.709Z,43.60
2018-03-27T03:57:28.695Z,40.97
2018-03-27T03:59:54.673Z,40.65
2018-03-27T04:02:20.735Z,46.72
2018-03-27T04:04:46.725Z,43.83
2018-03-27T04:07:12.760Z,44.35
2018-03-27T04:09:38.741Z,46.53
2018-03-27T04:12:04.711Z,49.72
2018-03-27T04:14:30.766Z,50.28
2018-03-27T04:16:56.796Z,41.90
2018-03-27T04:19:22.809Z,48.87
2018-03-27T04:21:48.773Z,45.17
2018-03-27T04:24:14.750Z,46.55
2018-03-27T04:26:40.746Z,48.28
2018-03-27T04:29:06.705Z,45.67
2018-03-27T04:31:32.720Z,45.22
2018-03-27T04:33:58.713Z,42.85
2018-03-27T04:36:24.713Z,47.62
2018-03-27T04:38:50.718Z,48.95
2018-03-27T04:41:16.711Z,46.53
2018-03-27T04:43:42.695Z,50.40
2018-03-27T04:46:08.748Z,46.65
2018-03-27T04:48:34.756Z,44.85
2018-03-27T04:51:00.811Z,48.58
2018-03-27T04:53:26.801Z,42.53
2018-03-27T04:55:52.800Z,41.83
2018-03-27T04:58:18.796Z,43.75
2018-03-27T05:00:44.791Z,46.58
2018-03-27T05:03:10.766Z,46.88
2018-03-27T05:05:36.796Z,50.05
2018-03-27T05:08:02.824Z,43.30
2018-03-27T05:10:28.818Z,49.90
2018-03-27T05:12:54.817Z,52.53
2018-03-27T05:15:22.075Z,53.80
2018-03-27T05:17:48.163Z,47.72
2018-03-27T05:20:14.191Z,54.80
2018-03-27T05:22:40.230Z,51.28
2018-03-27T05:25:06.278Z,49.05
2018-03-27T05:27:32.472Z,52.55
2018-03-27T05:29:58.565Z,49.53
2018-03-27T05:32:24.975Z,51.55
2018-03-27T05:34:50.966Z,47.03
2018-03-27T05:37:16.984Z,50.85
2018-03-27T05:39:43.012Z,62.40
2018-03-27T05:42:09.079Z,49.30
2018-03-27T05:44:35.098Z,38.00
2018-03-27T05:47:01.081Z,48.60
2018-03-27T05:49:27.078Z,48.22
2018-03-27T05:51:53.103Z,36.80
2018-03-27T05:54:19.208Z,44.75
2018-03-27T05:56:45.474Z,48.30
2018-03-27T05:59:11.546Z,45.28
2018-03-27T06:01:38.001Z,51.97
2018-03-27T06:04:04.450Z,43.22
2018-03-27T06:06:30.446Z,45.88
2018-03-27T06:08:56.475Z,44.50
2018-03-27T06:11:22.441Z,42.65
2018-03-27T06:13:48.427Z,32.05
2018-03-27T06:16:14.518Z,45.42
2018-03-27T06:18:40.553Z,42.55
2018-03-27T06:21:06.532Z,49.58
2018-03-27T06:23:32.545Z,33.13
2018-03-27T06:25:58.557Z,40.63
2018-03-27T06:28:24.562Z,31.87
2018-03-27T06:30:50.546Z,40.60
2018-03-27T06:33:16.603Z,29.50
2018-03-27T06:35:42.609Z,32.72
2018-03-27T06:38:08.598Z,42.55
2018-03-27T06:40:34.638Z,30.02
2018-03-27T06:43:00.665Z,38.72
2018-03-27T06:45:26.666Z,28.90
2018-03-27T06:47:54.127Z,28.02
2018-03-27T06:50:20.122Z,28.80
2018-03-27T06:52:46.358Z,30.23
2018-03-27T06:55:12.389Z,27.42
2018-03-27T06:57:38.512Z,30.60
2018-03-27T07:00:04.509Z,27.33
2018-03-27T07:02:30.566Z,30.45
2018-03-27T07:04:56.568Z,30.08
2018-03-27T07:07:22.642Z,38.10
2018-03-27T07:09:48.725Z,25.00
2018-03-27T07:12:14.777Z,40.70
2018-03-27T07:14:40.827Z,36.55
2018-03-27T07:17:06.989Z,32.28
2018-03-27T07:19:33.247Z,33.97
2018-03-27T07:21:59.259Z,30.85
2018-03-27T07:24:25.250Z,23.65
2018-03-27T07:26:51.282Z,26.27
2018-03-27T07:29:17.310Z,24.90
2018-03-27T07:31:43.455Z,24.27
2018-03-27T07:34:09.515Z,21.60
2018-03-27T07:36:36.177Z,17.67
2018-03-27T07:39:02.274Z,25.75
2018-03-27T07:41:28.331Z,18.62
2018-03-27T07:43:54.447Z,22.90
2018-03-27T07:46:20.569Z,19.02
2018-03-27T07:48:46.575Z,17.27
2018-03-27T07:51:12.564Z,17.15
2018-03-27T07:53:38.563Z,17.60
2018-03-27T07:56:04.590Z,16.40
2018-03-27T07:58:30.607Z,17.48
2018-03-27T08:00:56.653Z,21.98
2018-03-27T08:03:22.718Z,17.27
2018-03-27T08:05:48.807Z,21.67
2018-03-27T08:08:14.814Z,20.20
2018-03-27T08:10:40.874Z,15.43
2018-03-27T08:13:06.903Z,16.67
2018-03-27T08:15:32.924Z,14.52
2018-03-27T08:17:58.980Z,16.75
2018-03-27T08:20:25.673Z,14.27
2018-03-27T08:22:51.769Z,15.15
2018-03-27T08:25:17.792Z,18.50
2018-03-27T08:27:43.838Z,15.18
2018-03-27T08:30:09.956Z,18.00
2018-03-27T08:32:37.034Z,15.65
2018-03-27T08:35:03.103Z,15.27
2018-03-27T08:37:29.130Z,17.92
2018-03-27T08:39:55.157Z,17.10
2018-03-27T08:42:21.182Z,15.70
2018-03-27T08:44:47.266Z,15.73
2018-03-27T08:47:13.340Z,18.48
2018-03-27T08:49:39.353Z,17.12
2018-03-27T08:52:05.368Z,12.73
2018-03-27T08:54:31.376Z,13.95
2018-03-27T08:56:57.379Z,16.75
2018-03-27T08:59:23.458Z,14.63
2018-03-27T09:01:49.571Z,14.25
2018-03-27T09:04:15.656Z,15.73
2018-03-27T09:06:41.668Z,16.33
2018-03-27T09:09:07.726Z,14.60
2018-03-27T09:11:33.933Z,15.40
2018-03-27T09:14:00.081Z,14.00
2018-03-27T09:16:26.212Z,13.82
2018-03-27T09:18:52.247Z,16.42
2018-03-27T09:21:18.291Z,12.30
2018-03-27T09:23:45.293Z,12.05
2018-03-27T09:26:11.446Z,14.13
2018-03-27T09:28:37.539Z,14.52
2018-03-27T09:31:03.546Z,13.25
2018-03-27T09:33:29.647Z,14.60
2018-03-27T09:35:55.688Z,13.30
2018-03-27T09:38:21.752Z,12.77
2018-03-27T09:40:47.737Z,13.57
2018-03-27T09:43:13.871Z,13.30
2018-03-27T09:45:39.895Z,12.40
2018-03-27T09:48:05.906Z,13.13
2018-03-27T09:50:31.954Z,14.40
2018-03-27T09:52:58.018Z,13.05
2018-03-27T09:55:24.591Z,16.55
2018-03-27T09:57:50.606Z,14.77
2018-03-27T10:00:16.751Z,15.60
2018-03-27T10:02:42.793Z,16.87
2018-03-27T10:05:08.881Z,16.37
2018-03-27T10:07:34.898Z,17.12
2018-03-27T10:10:00.913Z,19.95
2018-03-27T10:12:26.936Z,18.17
2018-03-27T10:14:52.977Z,19.35
2018-03-27T10:17:18.986Z,18.50
2018-03-27T10:19:45.035Z,19.17
2018-03-27T10:22:11.184Z,19.58
2018-03-27T10:24:37.831Z,21.15
2018-03-27T10:27:04.002Z,24.87
2018-03-27T10:29:30.018Z,25.17
2018-03-27T10:31:56.053Z,22.33
2018-03-27T10:34:22.215Z,17.67
2018-03-27T10:36:48.266Z,20.30
2018-03-27T10:39:14.272Z,22.77
2018-03-27T10:41:40.249Z,22.65
2018-03-27T10:44:06.368Z,21.10
2018-03-27T10:46:32.382Z,20.48
2018-03-27T10:48:58.392Z,23.70
2018-03-27T10:51:24.470Z,19.40
2018-03-27T10:53:50.539Z,18.12
2018-03-27T10:56:16.567Z,16.45
2018-03-27T10:58:42.638Z,18.92
2018-03-27T11:01:08.733Z,17.77
2018-03-27T11:03:34.742Z,16.15
2018-03-27T11:06:00.764Z,16.50
2018-03-27T11:08:26.775Z,14.00
2018-03-27T11:10:52.763Z,14.38
2018-03-27T11:13:18.837Z,18.62
2018-03-27T11:15:44.899Z,18.42
2018-03-27T11:18:10.999Z,16.55
2018-03-27T11:20:37.093Z,18.65
2018-03-27T11:23:03.112Z,19.98
2018-03-27T11:25:29.098Z,18.08
2018-03-27T11:27:55.138Z,21.23
2018-03-27T11:30:21.181Z,18.83
2018-03-27T11:32:47.264Z,23.00
2018-03-27T11:35:13.339Z,23.83
2018-03-27T11:37:39.439Z,21.05
2018-03-27T11:40:05.500Z,23.25
2018-03-27T11:42:31.558Z,25.12
2018-03-27T11:44:57.669Z,23.52
2018-03-27T11:47:23.703Z,23.30
2018-03-27T11:49:49.694Z,24.92
2018-03-27T11:52:15.869Z,30.15
2018-03-27T11:54:42.053Z,28.80
2018-03-27T11:57:08.146Z,29.52
2018-03-27T11:59:34.174Z,28.52
2018-03-27T12:02:00.206Z,27.17
2018-03-27T12:04:26.322Z,30.42
2018-03-27T12:06:52.421Z,26.80
2018-03-27T12:09:18.420Z,28.98
2018-03-27T12:11:44.438Z,27.52
2018-03-27T12:14:10.486Z,23.52
2018-03-27T12:16:36.506Z,26.02
2018-03-27T12:19:02.513Z,27.45
2018-03-27T12:21:28.586Z,29.33
2018-03-27T12:23:54.586Z,30.40
2018-03-27T12:26:20.596Z,28.67
2018-03-27T12:28:46.612Z,30.30
2018-03-27T12:31:12.633Z,29.80
2018-03-27T12:33:38.658Z,29.67
2018-03-27T12:36:04.730Z,28.83
2018-03-27T12:38:30.846Z,24.27
2018-03-27T12:40:56.858Z,23.12
2018-03-27T12:43:22.874Z,23.70
2018-03-27T12:45:48.873Z,30.98
2018-03-27T12:48:14.875Z,28.70
2018-03-27T12:50:40.904Z,23.25
2018-03-27T12:53:06.922Z,22.60
2018-03-27T12:55:32.943Z,30.05
2018-03-27T12:57:58.920Z,29.27
2018-03-27T13:00:24.942Z,29.33
2018-03-27T13:02:50.994Z,25.40
2018-03-27T13:05:17.014Z,22.02
2018-03-27T13:07:43.058Z,21.92
2018-03-27T13:10:09.209Z,24.00
2018-03-27T13:12:35.242Z,30.50
2018-03-27T13:15:02.041Z,30.92
2018-03-27T13:17:35.063Z,22.37
2018-03-27T13:20:01.141Z,24.20
2018-03-27T13:22:27.189Z,23.83
2018-03-27T13:24:53.836Z,23.05
2018-03-27T13:27:19.990Z,23.20
2018-03-27T13:29:46.048Z,19.95
2018-03-27T13:32:12.154Z,18.20
2018-03-27T13:34:39.098Z,16.42
2018-03-27T13:37:05.129Z,20.73
2018-03-27T13:39:31.894Z,16.10
2018-03-27T13:41:58.058Z,18.17
2018-03-27T13:44:24.194Z,16.02
2018-03-27T13:46:50.301Z,17.35
2018-03-27T13:49:16.344Z,18.73
2018-03-27T13:51:42.420Z,19.52
2018-03-27T13:54:08.662Z,17.27
2018-03-27T13:56:34.671Z,18.65
2018-03-27T13:59:00.678Z,16.65
2018-03-27T14:01:26.744Z,18.67
2018-03-27T14:03:52.758Z,22.25
2018-03-27T14:06:18.769Z,18.58
2018-03-27T14:08:44.829Z,18.95
2018-03-27T14:11:10.839Z,19.60
2018-03-27T14:13:36.828Z,19.05
2018-03-27T14:16:02.870Z,21.40
2018-03-27T14:18:28.919Z,21.00
2018-03-27T14:20:54.930Z,21.70
2018-03-27T14:23:20.965Z,20.23
2018-03-27T14:25:47.000Z,21.42
2018-03-27T14:28:12.995Z,18.85
2018-03-27T14:30:39.062Z,18.80
2018-03-27T14:33:05.043Z,18.62
2018-03-27T14:35:31.064Z,17.52
2018-03-27T14:37:57.108Z,19.65
2018-03-27T14:40:23.157Z,19.65
2018-03-27T14:42:49.193Z,20.10
2018-03-27T14:45:15.292Z,19.15
2018-03-27T14:47:41.293Z,18.60
2018-03-27T14:50:07.363Z,21.75
2018-03-27T14:52:33.622Z,21.75
2018-03-27T14:54:59.764Z,20.48
2018-03-27T14:57:25.829Z,20.05
2018-03-27T14:59:51.877Z,21.62
2018-03-27T15:02:17.968Z,20.98
2018-03-27T15:04:44.043Z,27.77
2018-03-27T15:07:10.100Z,22.30
2018-03-27T15:09:36.118Z,20.30
2018-03-27T15:12:02.643Z,22.77
2018-03-27T15:14:28.687Z,31.83
2018-03-27T15:16:54.723Z,24.60
2018-03-27T15:19:20.766Z,27.55
2018-03-27T15:21:46.804Z,29.92
2018-03-27T15:24:12.818Z,30.40
2018-03-27T15:26:38.914Z,29.15
2018-03-27T15:29:04.981Z,28.80
2018-03-27T15:31:31.010Z,33.90
2018-03-27T15:33:57.034Z,32.95
2018-03-27T15:36:23.507Z,30.20
2018-03-27T15:38:49.530Z,28.27
2018-03-27T15:41:15.629Z,29.00
2018-03-27T15:43:41.734Z,27.92
2018-03-27T15:46:07.750Z,25.37
2018-03-27T15:48:33.813Z,27.13
2018-03-27T15:51:00.470Z,26.40
2018-03-27T15:53:26.509Z,30.85
2018-03-27T15:55:52.547Z,27.45
2018-03-27T15:58:18.601Z,28.87
2018-03-27T16:00:44.614Z,27.45
2018-03-27T16:03:10.643Z,26.92
2018-03-27T16:05:36.736Z,34.22
2018-03-27T16:08:02.744Z,24.70
2018-03-27T16:10:28.801Z,26.45
2018-03-27T16:12:54.883Z,27.55
2018-03-27T16:15:20.904Z,35.38
2018-03-27T16:17:46.922Z,29.95
2018-03-27T16:20:12.966Z,41.70
2018-03-27T16:22:38.999Z,28.40
2018-03-27T16:25:05.021Z,28.10
2018-03-27T16:27:31.118Z,32.65
2018-03-27T16:29:57.105Z,27.65
2018-03-27T16:32:23.189Z,28.17
2018-03-27T16:34:49.307Z,29.87
2018-03-27T16:37:16.325Z,26.40
2018-03-27T16:39:42.355Z,25.88
2018-03-27T16:42:08.540Z,26.85
2018-03-27T16:44:35.613Z,23.92
2018-03-27T16:47:01.758Z,24.95
2018-03-27T16:49:27.840Z,25.33
2018-03-27T16:51:53.850Z,33.28
2018-03-27T16:54:19.920Z,26.15
2018-03-27T16:56:46.036Z,26.15
2018-03-27T16:59:12.121Z,35.75
2018-03-27T17:01:38.169Z,30.02
2018-03-27T17:04:04.243Z,27.98
2018-03-27T17:06:30.351Z,29.12
2018-03-27T17:08:56.444Z,39.58
2018-03-27T17:11:22.459Z,41.08
2018-03-27T17:13:48.484Z,32.88
2018-03-27T17:16:14.594Z,38.97
2018-03-27T17:18:40.643Z,26.98
2018-03-27T17:21:06.652Z,38.95
2018-03-27T17:23:32.691Z,28.77
2018-03-27T17:25:58.752Z,39.95
2018-03-27T17:28:24.779Z,39.13
2018-03-27T17:31:55.494Z,33.17
2018-03-27T17:34:21.535Z,44.28
2018-03-27T17:36:47.638Z,35.72
2018-03-27T17:39:17.014Z,39.85
2018-03-27T17:41:43.064Z,33.10
2018-03-27T17:44:09.117Z,37.65
2018-03-27T17:46:35.185Z,31.48
2018-03-27T17:49:01.208Z,45.70
2018-03-27T17:51:27.284Z,32.85
2018-03-27T17:53:53.396Z,41.50
2018-03-27T17:56:19.550Z,35.05
2018-03-27T17:58:45.620Z,33.38
2018-03-27T18:01:11.694Z,45.97
2018-03-27T18:03:37.749Z,31.23
2018-03-27T18:06:03.813Z,46.80
2018-03-27T18:08:30.026Z,43.35
2018-03-27T18:10:56.158Z,38.35
2018-03-27T18:13:22.318Z,44.33
2018-03-27T18:15:48.464Z,37.20
2018-03-27T18:18:14.553Z,61.75
2018-03-27T18:20:40.683Z,40.53
2018-03-27T18:23:06.738Z,54.28
2018-03-27T18:25:32.809Z,41.67
2018-03-27T18:27:58.896Z,51.67
2018-03-27T18:30:25.025Z,40.17
2018-03-27T18:32:51.066Z,40.05
2018-03-27T18:35:17.101Z,41.83
2018-03-27T18:37:43.142Z,41.03
2018-03-27T18:40:09.319Z,39.90
2018-03-27T18:42:35.405Z,42.35
2018-03-27T18:45:01.482Z,46.65
2018-03-27T18:47:27.559Z,41.35
2018-03-27T18:49:53.625Z,45.85
2018-03-27T18:52:19.792Z,49.10
2018-03-27T18:54:46.017Z,59.67
2018-03-27T18:57:12.154Z,43.83
2018-03-27T18:59:38.281Z,48.70
2018-03-27T19:02:04.337Z,47.33
2018-03-27T19:04:30.359Z,70.18
2018-03-27T19:06:56.587Z,65.90
2018-03-27T19:09:22.755Z,80.45
2018-03-27T19:11:48.827Z,56.20
2018-03-27T19:14:14.935Z,57.03
2018-03-27T19:16:41.002Z,67.05
2018-03-27T19:19:07.150Z,107.40
2018-03-27T19:21:33.183Z,66.80
2018-03-27T19:23:59.273Z,98.72
2018-03-27T19:26:25.307Z,73.07
2018-03-27T19:28:51.344Z,74.25
2018-03-27T19:31:17.394Z,64.65
2018-03-27T19:33:43.430Z,59.10
2018-03-27T19:36:11.451Z,73.43
2018-03-27T19:38:37.793Z,135.37
2018-03-27T19:41:03.822Z,61.13
2018-03-27T19:43:30.568Z,99.43
2018-03-27T19:45:56.641Z,72.05
2018-03-27T19:48:22.721Z,101.97
2018-03-27T19:50:48.850Z,70.10
2018-03-27T19:53:14.906Z,74.68
2018-03-27T19:55:41.013Z,70.53
2018-03-27T19:58:07.116Z,74.18
2018-03-27T20:00:33.179Z,88.05
2018-03-27T20:02:59.235Z,71.28
2018-03-27T20:05:25.359Z,97.35
2018-03-27T20:07:51.390Z,88.70
2018-03-27T20:10:17.435Z,94.68
2018-03-27T20:12:43.534Z,93.80
2018-03-27T20:15:09.596Z,109.45
2018-03-27T20:17:35.680Z,157.55
2018-03-27T20:20:01.923Z,122.75
2018-03-27T20:22:28.948Z,104.78
2018-03-27T20:24:55.030Z,117.87
2018-03-27T20:27:21.081Z,91.57
2018-03-27T20:29:47.117Z,125.38
2018-03-27T20:32:13.204Z,126.53
2018-03-27T20:34:39.246Z,85.97
2018-03-27T20:37:05.396Z,90.75
2018-03-27T20:39:31.488Z,110.07
2018-03-27T20:41:57.595Z,178.68
2018-03-27T20:44:23.965Z,118.75
2018-03-27T20:46:50.041Z,96.32
2018-03-27T20:49:16.102Z,99.03
2018-03-27T20:51:42.255Z,117.50
2018-03-27T20:54:09.661Z,216.73
2018-03-27T20:56:36.419Z,197.20
2018-03-27T20:59:02.527Z,123.53
2018-03-27T21:01:28.570Z,117.18
2018-03-27T21:03:54.711Z,178.45
2018-03-27T21:06:20.758Z,129.43
2018-03-27T21:08:46.818Z,214.77
2018-03-27T21:11:12.880Z,234.48
2018-03-27T21:13:38.931Z,140.32
2018-03-27T21:16:04.960Z,131.23
2018-03-27T21:18:31.002Z,194.18
2018-03-27T21:20:57.066Z,154.27
2018-03-27T21:23:23.146Z,182.23
2018-03-27T21:25:49.194Z,144.85
2018-03-27T21:28:15.275Z,124.32
2018-03-27T21:30:42.356Z,292.08
2018-03-27T21:33:08.416Z,157.65
2018-03-27T21:35:34.570Z,131.43
2018-03-27T21:38:00.677Z,149.93
2018-03-27T21:40:26.682Z,137.18
2018-03-27T21:42:52.746Z,223.43
2018-03-27T21:45:18.806Z,160.43
2018-03-27T21:47:44.874Z,177.95
2018-03-27T21:50:10.902Z,202.57
2018-03-27T21:52:36.946Z,195.68
2018-03-27T21:55:03.006Z,167.40
2018-03-27T21:57:29.101Z,214.15
2018-03-27T21:59:55.143Z,197.35
2018-03-27T22:02:47.323Z,193.15
2018-03-27T22:05:13.537Z,141.80
2018-03-27T22:07:39.562Z,153.48
2018-03-27T22:10:05.739Z,136.57
2018-03-27T22:12:31.909Z,151.37
2018-03-27T22:14:57.919Z,136.82
2018-03-27T22:17:23.974Z,129.85
2018-03-27T22:19:50.078Z,121.15
2018-03-27T22:22:16.157Z,108.40
2018-03-27T22:24:42.186Z,81.40
2018-03-27T22:27:08.247Z,87.20
2018-03-27T22:29:34.323Z,95.90
2018-03-27T22:32:00.438Z,86.60
2018-03-27T22:34:26.464Z,89.20
2018-03-27T22:36:52.526Z,83.20
2018-03-27T22:39:18.703Z,81.63
2018-03-27T22:41:44.772Z,111.80
2018-03-27T22:44:10.875Z,91.85
2018-03-27T22:46:36.948Z,81.47
2018-03-27T22:49:02.998Z,95.15
2018-03-27T22:51:36.107Z,76.70
2018-03-27T22:54:02.315Z,104.95
2018-03-27T22:56:28.478Z,82.07
2018-03-27T22:58:54.492Z,71.60
2018-03-27T23:01:20.528Z,100.55
2018-03-27T23:03:46.561Z,84.55
2018-03-27T23:06:12.693Z,129.12
2018-03-27T23:08:38.710Z,98.85
2018-03-27T23:11:04.796Z,109.57
2018-03-27T23:13:30.824Z,119.32
2018-03-27T23:15:56.935Z,109.10
2018-03-27T23:18:22.987Z,83.90
2018-03-27T23:20:49.012Z,110.90
2018-03-27T23:23:15.037Z,92.82
2018-03-27T23:25:41.063Z,126.75
2018-03-27T23:28:07.120Z,147.35
2018-03-27T23:30:33.148Z,114.03
2018-03-27T23:32:59.182Z,168.18
2018-03-27T23:35:25.170Z,164.98
2018-03-27T23:37:51.210Z,175.12
2018-03-27T23:40:17.250Z,144.32
2018-03-27T23:42:43.299Z,118.32
2018-03-27T23:45:09.353Z,148.80
2018-03-27T23:47:35.402Z,176.00
2018-03-27T23:50:01.431Z,162.40
2018-03-27T23:52:27.509Z,143.68
2018-03-27T23:54:53.557Z,202.13
2018-03-27T23:57:19.695Z,150.02
2018-03-27T23:59:45.727Z,207.98
